createdAt,value
2022-08-19T00:00:32.617Z,20.70
2022-08-19T00:02:59.495Z,20.68
2022-08-19T00:05:26.240Z,20.63
2022-08-19T00:07:53.058Z,20.62
2022-08-19T00:10:21.218Z,20.62
2022-08-19T00:12:48.465Z,20.60
2022-08-19T00:15:18.178Z,20.53
2022-08-19T00:17:46.441Z,20.49
2022-08-19T00:20:18.054Z,20.55
2022-08-19T00:22:46.305Z,20.54
2022-08-19T00:25:13.303Z,20.51
2022-08-19T00:27:42.728Z,20.49
2022-08-19T00:30:11.405Z,20.40
2022-08-19T00:32:38.354Z,20.41
2022-08-19T00:35:06.646Z,20.40
2022-08-19T00:37:35.566Z,20.39
2022-08-19T00:40:05.244Z,20.35
2022-08-19T00:42:32.132Z,20.34
2022-08-19T00:44:59.176Z,20.30
2022-08-19T00:47:26.059Z,20.23
2022-08-19T00:49:57.003Z,20.18
2022-08-19T00:52:29.981Z,20.23
2022-08-19T00:54:57.881Z,20.18
2022-08-19T00:57:30.660Z,20.09
2022-08-19T01:00:02.512Z,20.12
2022-08-19T01:02:32.192Z,20.03
2022-08-19T01:05:01.381Z,20.06
2022-08-19T01:07:28.230Z,20.00
2022-08-19T01:10:03.255Z,20.03
2022-08-19T01:12:31.176Z,20.00
2022-08-19T01:14:58.704Z,19.97
2022-08-19T01:17:26.212Z,19.91
2022-08-19T01:19:53.081Z,19.90
2022-08-19T01:22:28.691Z,19.88
2022-08-19T01:24:57.927Z,19.91
2022-08-19T01:27:26.277Z,19.87
2022-08-19T01:29:53.057Z,19.83
2022-08-19T01:32:32.303Z,19.76
2022-08-19T01:35:03.029Z,19.78
2022-08-19T01:37:31.574Z,19.77
2022-08-19T01:39:58.776Z,19.72
2022-08-19T01:42:30.127Z,19.71
2022-08-19T01:44:58.208Z,19.69
2022-08-19T01:47:25.369Z,19.65
2022-08-19T01:49:52.080Z,19.63
2022-08-19T01:52:19.056Z,19.59
2022-08-19T01:54:45.715Z,19.50
2022-08-19T01:57:15.160Z,19.46
2022-08-19T01:59:43.827Z,19.43
2022-08-19T02:02:11.426Z,19.46
2022-08-19T02:04:39.484Z,19.42
2022-08-19T02:07:07.295Z,19.40
2022-08-19T02:09:35.653Z,19.32
2022-08-19T02:12:02.778Z,19.39
2022-08-19T02:14:29.425Z,19.36
2022-08-19T02:16:56.174Z,19.37
2022-08-19T02:19:23.391Z,19.34
2022-08-19T02:21:50.092Z,19.29
2022-08-19T02:24:16.966Z,19.17
2022-08-19T02:26:43.952Z,19.24
2022-08-19T02:29:10.683Z,19.21
2022-08-19T02:31:37.388Z,19.15
2022-08-19T02:34:04.493Z,19.15
2022-08-19T02:36:31.623Z,19.12
2022-08-19T02:38:58.543Z,19.05
2022-08-19T02:41:28.703Z,19.04
2022-08-19T02:44:26.695Z,19.04
2022-08-19T02:46:48.210Z,19.03
2022-08-19T02:49:17.443Z,18.99
2022-08-19T02:51:46.775Z,18.97
2022-08-19T02:54:15.211Z,18.94
2022-08-19T02:56:43.598Z,18.91
2022-08-19T02:59:12.624Z,18.91
2022-08-19T03:01:42.203Z,18.92
2022-08-19T03:04:12.352Z,18.91
2022-08-19T03:06:41.854Z,18.91
2022-08-19T03:09:09.303Z,18.84
2022-08-19T03:11:36.259Z,18.84
2022-08-19T03:14:04.635Z,18.90
2022-08-19T03:16:35.425Z,18.86
2022-08-19T03:19:03.880Z,18.87
2022-08-19T03:21:33.895Z,18.94
2022-08-19T03:24:05.082Z,18.97
2022-08-19T03:26:32.177Z,18.99
2022-08-19T03:29:02.098Z,19.00
2022-08-19T03:31:44.351Z,19.00
2022-08-19T03:34:22.256Z,19.08
2022-08-19T03:36:49.635Z,19.12
2022-08-19T03:39:16.822Z,19.15
2022-08-19T03:41:48.275Z,19.18
2022-08-19T03:44:19.261Z,19.19
2022-08-19T03:46:56.320Z,19.24
2022-08-19T03:49:28.441Z,19.26
2022-08-19T03:51:57.860Z,19.25
2022-08-19T03:54:26.427Z,19.29
2022-08-19T03:56:55.758Z,19.36
2022-08-19T03:59:29.422Z,19.55
2022-08-19T04:01:58.493Z,19.85
2022-08-19T04:04:28.995Z,20.15
2022-08-19T04:06:56.789Z,20.41
2022-08-19T04:09:23.870Z,20.50
2022-08-19T04:11:57.065Z,20.40
2022-08-19T04:14:31.361Z,20.30
2022-08-19T04:17:02.605Z,20.23
2022-08-19T04:19:31.495Z,20.08
2022-08-19T04:21:59.527Z,19.93
2022-08-19T04:24:26.412Z,19.81
2022-08-19T04:26:53.362Z,19.73
2022-08-19T04:29:25.618Z,19.66
2022-08-19T04:31:54.668Z,19.57
2022-08-19T04:34:23.558Z,19.56
2022-08-19T04:36:54.587Z,19.54
2022-08-19T04:39:46.263Z,19.53
2022-08-19T04:42:32.466Z,19.54
2022-08-19T04:45:00.008Z,19.52
2022-08-19T04:47:51.435Z,19.47
2022-08-19T04:50:14.782Z,19.48
2022-08-19T04:52:44.566Z,19.45
2022-08-19T04:55:12.357Z,19.42
2022-08-19T04:57:41.522Z,19.39
2022-08-19T05:00:09.982Z,19.38
2022-08-19T05:02:38.705Z,19.48
2022-08-19T05:05:07.418Z,19.48
2022-08-19T05:07:34.629Z,19.50
2022-08-19T05:10:01.502Z,19.53
2022-08-19T05:12:29.781Z,19.54
2022-08-19T05:14:58.466Z,19.52
2022-08-19T05:17:28.789Z,19.61
2022-08-19T05:20:15.988Z,19.62
2022-08-19T05:22:44.962Z,19.64
2022-08-19T05:25:15.802Z,19.65
2022-08-19T05:27:43.138Z,19.68
2022-08-19T05:30:11.621Z,19.70
2022-08-19T05:32:39.428Z,19.73
2022-08-19T05:35:06.991Z,19.76
2022-08-19T05:37:33.767Z,19.75
2022-08-19T05:40:02.412Z,19.83
2022-08-19T05:42:29.384Z,19.87
2022-08-19T05:44:56.979Z,19.90
2022-08-19T05:47:24.152Z,19.94
2022-08-19T05:49:52.286Z,19.91
2022-08-19T05:52:25.471Z,19.96
2022-08-19T05:54:56.279Z,19.99
2022-08-19T05:57:24.290Z,20.05
2022-08-19T05:59:57.681Z,20.08
2022-08-19T06:02:31.861Z,20.17
2022-08-19T06:04:59.401Z,20.20
2022-08-19T06:07:26.320Z,20.23
2022-08-19T06:09:59.626Z,20.26
2022-08-19T06:12:32.365Z,20.24
2022-08-19T06:15:01.048Z,20.33
2022-08-19T06:17:31.298Z,20.39
2022-08-19T06:19:59.464Z,20.43
2022-08-19T06:22:27.359Z,20.45
2022-08-19T06:24:55.512Z,20.46
2022-08-19T06:27:22.809Z,20.39
2022-08-19T06:29:50.031Z,20.48
2022-08-19T06:32:19.389Z,20.53
2022-08-19T06:34:46.492Z,20.62
2022-08-19T06:37:13.807Z,20.66
2022-08-19T06:39:44.031Z,20.70
2022-08-19T06:42:14.204Z,20.64
2022-08-19T06:44:43.802Z,20.69
2022-08-19T06:47:23.870Z,20.75
2022-08-19T06:50:05.370Z,20.81
2022-08-19T06:52:34.999Z,20.84
2022-08-19T06:55:06.274Z,20.83
2022-08-19T06:57:34.822Z,20.96
2022-08-19T07:00:01.956Z,20.99
2022-08-19T07:02:29.232Z,21.05
2022-08-19T07:04:58.865Z,21.09
2022-08-19T07:07:25.880Z,21.13
2022-08-19T07:09:58.485Z,21.17
2022-08-19T07:12:33.942Z,21.22
2022-08-19T07:15:06.029Z,21.27
2022-08-19T07:17:34.609Z,21.33
2022-08-19T07:20:07.009Z,21.38
2022-08-19T07:22:37.483Z,21.35
2022-08-19T07:25:04.797Z,21.41
2022-08-19T07:27:33.646Z,21.53
2022-08-19T07:30:01.191Z,21.56
2022-08-19T07:32:28.147Z,21.57
2022-08-19T07:34:56.682Z,21.59
2022-08-19T07:37:33.053Z,21.67
2022-08-19T07:40:02.055Z,21.72
2022-08-19T07:42:30.928Z,21.80
2022-08-19T07:44:59.376Z,21.87
2022-08-19T07:47:47.492Z,21.92
2022-08-19T07:50:13.368Z,21.95
2022-08-19T07:52:40.997Z,21.99
2022-08-19T07:55:11.443Z,22.04
2022-08-19T07:57:58.227Z,22.10
2022-08-19T08:00:25.041Z,22.16
2022-08-19T08:02:55.850Z,22.18
2022-08-19T08:05:44.248Z,22.27
2022-08-19T08:08:32.109Z,22.30
2022-08-19T08:11:00.324Z,22.30
2022-08-19T08:13:28.111Z,22.28
2022-08-19T08:15:56.712Z,22.28
2022-08-19T08:18:27.956Z,22.29
2022-08-19T08:20:58.427Z,22.35
2022-08-19T08:23:26.677Z,22.39
2022-08-19T08:25:56.623Z,22.40
2022-08-19T08:28:29.400Z,22.48
2022-08-19T08:30:58.067Z,22.53
2022-08-19T08:33:34.841Z,22.52
2022-08-19T08:36:05.977Z,22.57
2022-08-19T08:38:39.083Z,22.58
2022-08-19T08:41:38.657Z,22.55
2022-08-19T08:44:05.772Z,22.68
2022-08-19T08:46:52.756Z,22.73
2022-08-19T08:49:46.289Z,22.75
2022-08-19T08:52:36.274Z,22.82
2022-08-19T08:55:14.881Z,22.86
2022-08-19T08:57:55.784Z,22.89
2022-08-19T09:00:28.622Z,22.92
2022-08-19T09:02:56.885Z,22.96
2022-08-19T09:05:37.684Z,22.97
2022-08-19T09:08:29.984Z,23.03
2022-08-19T09:10:58.650Z,23.13
2022-08-19T09:13:39.336Z,23.18
2022-08-19T09:16:22.030Z,23.25
2022-08-19T09:18:59.891Z,23.27
2022-08-19T09:21:33.041Z,23.28
2022-08-19T09:24:00.146Z,23.33
2022-08-19T09:26:47.658Z,23.43
2022-08-19T09:29:14.955Z,23.54
2022-08-19T09:31:42.109Z,23.67
2022-08-19T09:34:21.758Z,23.73
2022-08-19T09:36:54.473Z,23.75
2022-08-19T09:39:22.645Z,23.84
2022-08-19T09:41:50.988Z,23.96
2022-08-19T09:44:19.135Z,24.01
2022-08-19T09:46:48.141Z,24.05
2022-08-19T09:49:18.305Z,24.08
2022-08-19T09:51:50.330Z,24.17
2022-08-19T09:54:23.505Z,24.15
2022-08-19T09:56:54.028Z,24.12
2022-08-19T09:59:21.403Z,24.10
2022-08-19T10:01:48.513Z,24.06
2022-08-19T10:04:19.918Z,24.20
2022-08-19T10:06:48.619Z,24.24
2022-08-19T10:09:26.205Z,24.30
2022-08-19T10:12:03.580Z,24.30
2022-08-19T10:14:31.331Z,24.44
2022-08-19T10:16:59.373Z,24.48
2022-08-19T10:19:27.309Z,24.44
2022-08-19T10:21:55.864Z,24.35
2022-08-19T10:24:28.795Z,24.33
2022-08-19T10:26:58.983Z,24.31
2022-08-19T10:29:32.655Z,24.37
2022-08-19T10:32:03.338Z,24.37
2022-08-19T10:34:31.570Z,24.49
2022-08-19T10:37:00.966Z,24.50
2022-08-19T10:39:31.274Z,24.46
2022-08-19T10:41:58.908Z,24.40
2022-08-19T10:44:32.234Z,24.42
2022-08-19T10:47:00.206Z,24.38
2022-08-19T10:49:28.224Z,24.53
2022-08-19T10:52:20.699Z,24.59
2022-08-19T10:55:08.879Z,24.67
2022-08-19T10:57:59.403Z,24.71
2022-08-19T11:00:24.991Z,24.80
2022-08-19T11:02:52.583Z,24.86
2022-08-19T11:05:19.835Z,24.91
2022-08-19T11:07:46.956Z,24.95
2022-08-19T11:10:20.910Z,24.99
2022-08-19T11:12:49.181Z,24.98
2022-08-19T11:15:16.573Z,24.92
2022-08-19T11:17:44.801Z,24.80
2022-08-19T11:20:13.987Z,24.91
2022-08-19T11:22:42.190Z,25.02
2022-08-19T11:25:10.716Z,25.07
2022-08-19T11:27:45.768Z,25.15
2022-08-19T11:30:14.751Z,25.16
2022-08-19T11:32:45.896Z,25.19
2022-08-19T11:35:17.192Z,25.18
2022-08-19T11:37:44.293Z,25.17
2022-08-19T11:40:11.935Z,25.19
2022-08-19T11:42:58.977Z,25.24
2022-08-19T11:45:29.054Z,25.21
2022-08-19T11:47:56.556Z,25.23
2022-08-19T11:50:24.562Z,25.18
2022-08-19T11:52:55.694Z,25.02
2022-08-19T11:55:23.758Z,25.11
2022-08-19T11:57:50.566Z,25.10
2022-08-19T12:00:17.559Z,25.11
2022-08-19T12:02:44.565Z,25.11
2022-08-19T12:05:12.830Z,25.07
2022-08-19T12:07:42.399Z,25.05
2022-08-19T12:10:10.709Z,24.97
2022-08-19T12:12:43.295Z,25.03
2022-08-19T12:15:11.994Z,25.03
2022-08-19T12:17:39.168Z,25.03
2022-08-19T12:20:08.573Z,25.02
2022-08-19T12:22:36.348Z,25.02
2022-08-19T12:25:04.724Z,24.92
2022-08-19T12:27:32.249Z,24.86
2022-08-19T12:30:18.882Z,24.71
2022-08-19T12:32:45.523Z,24.56
2022-08-19T12:35:12.808Z,24.45
2022-08-19T12:37:45.347Z,24.37
2022-08-19T12:40:23.494Z,24.29
2022-08-19T12:42:54.930Z,24.21
2022-08-19T12:45:22.592Z,24.16
2022-08-19T12:47:50.469Z,24.10
2022-08-19T12:50:22.468Z,24.06
2022-08-19T12:52:50.069Z,23.97
2022-08-19T12:55:16.951Z,23.93
2022-08-19T12:57:44.022Z,23.88
2022-08-19T13:00:19.528Z,23.82
2022-08-19T13:02:53.426Z,23.79
2022-08-19T13:05:23.814Z,23.74
2022-08-19T13:07:53.096Z,23.70
2022-08-19T13:10:21.264Z,23.68
2022-08-19T13:12:50.423Z,23.63
2022-08-19T13:15:23.819Z,23.59
2022-08-19T13:17:52.796Z,23.53
2022-08-19T13:20:21.544Z,23.38
2022-08-19T13:22:49.277Z,23.39
2022-08-19T13:25:18.581Z,23.35
2022-08-19T13:27:46.325Z,23.32
2022-08-19T13:30:34.371Z,23.21
2022-08-19T13:33:15.188Z,23.25
2022-08-19T13:35:57.956Z,23.20
2022-08-19T13:38:25.137Z,23.09
2022-08-19T13:40:53.568Z,23.12
2022-08-19T13:43:23.825Z,23.08
2022-08-19T13:45:56.303Z,23.11
2022-08-19T13:48:24.608Z,23.07
2022-08-19T13:50:51.878Z,23.06
2022-08-19T13:53:19.193Z,23.01
2022-08-19T13:55:46.006Z,23.00
2022-08-19T13:58:13.373Z,23.03
2022-08-19T14:00:43.829Z,23.01
2022-08-19T14:03:11.010Z,22.93
2022-08-19T14:05:38.212Z,22.90
2022-08-19T14:08:04.899Z,22.84
2022-08-19T14:10:32.942Z,22.79
2022-08-19T14:13:03.276Z,22.81
2022-08-19T14:15:31.251Z,22.80
2022-08-19T14:17:58.630Z,22.76
2022-08-19T14:20:26.287Z,22.73
2022-08-19T14:22:53.891Z,22.75
2022-08-19T14:25:27.172Z,22.79
2022-08-19T14:27:54.365Z,22.81
2022-08-19T14:30:28.598Z,22.75
2022-08-19T14:32:57.311Z,22.76
2022-08-19T14:35:24.887Z,22.74
2022-08-19T14:37:56.040Z,22.73
2022-08-19T14:40:29.073Z,22.72
2022-08-19T14:43:00.419Z,22.73
2022-08-19T14:45:29.256Z,22.74
2022-08-19T14:47:56.652Z,22.75
2022-08-19T14:50:23.720Z,22.65
2022-08-19T14:52:50.628Z,22.57
2022-08-19T14:55:19.195Z,22.49
2022-08-19T14:57:46.173Z,22.42
2022-08-19T15:00:14.339Z,22.42
2022-08-19T15:02:42.740Z,22.39
2022-08-19T15:05:10.016Z,22.39
2022-08-19T15:07:37.847Z,22.38
2022-08-19T15:10:10.564Z,22.37
2022-08-19T15:12:40.769Z,22.34
2022-08-19T15:15:13.670Z,22.32
2022-08-19T15:17:54.523Z,22.25
2022-08-19T15:20:23.688Z,22.26
2022-08-19T15:22:50.485Z,22.27
2022-08-19T15:25:19.581Z,22.23
2022-08-19T15:27:46.897Z,22.29
2022-08-19T15:30:23.551Z,22.38
2022-08-19T15:32:51.125Z,22.40
2022-08-19T15:35:19.399Z,22.39
2022-08-19T15:37:49.825Z,22.37
2022-08-19T15:40:17.549Z,22.36
2022-08-19T15:42:44.681Z,22.30
2022-08-19T15:45:13.484Z,22.24
2022-08-19T15:47:40.935Z,22.28
2022-08-19T15:50:12.854Z,22.19
2022-08-19T15:52:49.562Z,22.15
2022-08-19T15:55:33.426Z,22.18
2022-08-19T15:58:29.920Z,22.11
2022-08-19T16:01:20.494Z,22.00
2022-08-19T16:04:14.376Z,21.98
2022-08-19T16:06:51.926Z,21.89
2022-08-19T16:09:27.067Z,21.90
2022-08-19T16:12:02.713Z,21.88
2022-08-19T16:14:32.240Z,21.85
2022-08-19T16:16:59.204Z,21.80
2022-08-19T16:19:25.967Z,21.76
2022-08-19T16:21:55.359Z,21.72
2022-08-19T16:24:25.091Z,21.67
2022-08-19T16:26:51.839Z,21.64
2022-08-19T16:29:22.140Z,21.63
2022-08-19T16:32:07.455Z,21.59
2022-08-19T16:34:34.571Z,21.57
2022-08-19T16:37:01.861Z,21.47
2022-08-19T16:39:29.071Z,21.49
2022-08-19T16:41:56.093Z,21.49
2022-08-19T16:44:22.860Z,21.47
2022-08-19T16:46:58.642Z,21.44
2022-08-19T16:49:53.682Z,21.44
2022-08-19T16:52:16.106Z,21.41
2022-08-19T16:54:43.895Z,21.39
2022-08-19T16:57:12.520Z,21.37
2022-08-19T16:59:48.653Z,21.35
2022-08-19T17:02:18.319Z,21.34
2022-08-19T17:04:57.681Z,21.32
2022-08-19T17:07:29.595Z,21.24
2022-08-19T17:10:00.148Z,21.24
2022-08-19T17:12:30.525Z,21.21
2022-08-19T17:15:00.893Z,21.15
2022-08-19T17:17:29.281Z,21.08
2022-08-19T17:19:57.115Z,21.11
2022-08-19T17:22:24.001Z,21.02
2022-08-19T17:24:51.010Z,21.06
2022-08-19T17:27:19.773Z,21.04
2022-08-19T17:29:47.221Z,20.96
2022-08-19T17:32:15.346Z,21.01
2022-08-19T17:34:42.068Z,20.99
2022-08-19T17:37:08.824Z,20.96
2022-08-19T17:39:39.025Z,20.93
2022-08-19T17:42:08.040Z,20.87
2022-08-19T17:44:36.687Z,20.87
2022-08-19T17:47:04.657Z,20.89
2022-08-19T17:49:32.698Z,20.80
2022-08-19T17:52:00.618Z,20.81
2022-08-19T17:54:31.807Z,20.77
2022-08-19T17:57:01.486Z,20.75
2022-08-19T17:59:30.249Z,20.69
2022-08-19T18:01:57.883Z,20.66
2022-08-19T18:04:26.360Z,20.61
2022-08-19T18:06:55.564Z,20.58
2022-08-19T18:09:42.698Z,20.57
2022-08-19T18:12:11.728Z,20.54
2022-08-19T18:14:39.447Z,20.42
2022-08-19T18:17:09.521Z,20.47
2022-08-19T18:19:43.265Z,20.40
2022-08-19T18:22:24.496Z,20.39
2022-08-19T18:24:51.656Z,20.36
2022-08-19T18:27:18.808Z,20.33
2022-08-19T18:29:45.923Z,20.31
2022-08-19T18:32:13.407Z,20.30
2022-08-19T18:34:44.240Z,20.25
2022-08-19T18:37:12.019Z,20.26
2022-08-19T18:39:58.369Z,20.24
2022-08-19T18:42:44.213Z,20.21
2022-08-19T18:45:30.204Z,20.18
2022-08-19T18:48:26.366Z,20.14
2022-08-19T18:50:59.823Z,20.06
2022-08-19T18:53:28.591Z,20.08
2022-08-19T18:55:56.400Z,20.08
2022-08-19T18:58:36.027Z,20.05
2022-08-19T19:01:11.773Z,20.04
2022-08-19T19:03:45.772Z,19.97
2022-08-19T19:06:14.843Z,19.98
2022-08-19T19:08:41.602Z,19.97
2022-08-19T19:11:09.201Z,19.88
2022-08-19T19:13:39.706Z,19.94
2022-08-19T19:16:10.004Z,19.93
2022-08-19T19:18:37.388Z,19.86
2022-08-19T19:21:04.525Z,19.91
2022-08-19T19:23:31.213Z,19.91
2022-08-19T19:25:58.407Z,19.88
2022-08-19T19:28:29.058Z,19.86
2022-08-19T19:31:00.488Z,19.83
2022-08-19T19:33:28.255Z,19.79
2022-08-19T19:35:55.093Z,19.80
2022-08-19T19:38:21.858Z,19.73
2022-08-19T19:40:49.057Z,19.70
2022-08-19T19:43:17.185Z,19.74
2022-08-19T19:45:44.849Z,19.73
2022-08-19T19:48:14.879Z,19.72
2022-08-19T19:50:42.232Z,19.74
2022-08-19T19:53:09.155Z,19.74
2022-08-19T19:55:36.585Z,19.74
2022-08-19T19:58:06.885Z,19.73
2022-08-19T20:00:34.108Z,19.66
2022-08-19T20:03:01.603Z,19.72
2022-08-19T20:05:28.380Z,19.73
2022-08-19T20:08:14.889Z,19.73
2022-08-19T20:10:43.770Z,19.70
2022-08-19T20:13:11.830Z,19.67
2022-08-19T20:15:42.331Z,19.57
2022-08-19T20:18:11.185Z,19.57
2022-08-19T20:20:38.136Z,19.54
2022-08-19T20:23:05.251Z,19.51
2022-08-19T20:25:32.573Z,19.57
2022-08-19T20:28:01.173Z,19.53
2022-08-19T20:30:28.215Z,19.52
2022-08-19T20:32:58.862Z,19.53
2022-08-19T20:35:26.428Z,19.45
2022-08-19T20:37:58.101Z,19.54
2022-08-19T20:40:29.104Z,19.55
2022-08-19T20:42:56.719Z,19.53
2022-08-19T20:45:33.646Z,19.51
2022-08-19T20:48:03.377Z,19.57
2022-08-19T20:50:32.249Z,19.46
2022-08-19T20:52:59.214Z,19.54
2022-08-19T20:55:27.408Z,19.57
2022-08-19T20:57:54.821Z,19.55
2022-08-19T21:00:21.748Z,19.53
2022-08-19T21:02:48.857Z,19.41
2022-08-19T21:05:15.652Z,19.43
2022-08-19T21:07:42.620Z,19.39
2022-08-19T21:10:09.856Z,19.30
2022-08-19T21:12:36.530Z,19.34
2022-08-19T21:15:04.988Z,19.26
2022-08-19T21:17:32.017Z,19.21
2022-08-19T21:19:58.907Z,19.23
2022-08-19T21:22:25.630Z,19.13
2022-08-19T21:24:52.827Z,19.01
2022-08-19T21:27:19.567Z,19.04
2022-08-19T21:29:46.238Z,18.91
2022-08-19T21:32:14.191Z,18.89
2022-08-19T21:34:42.786Z,18.76
2022-08-19T21:37:24.725Z,18.75
2022-08-19T21:39:53.650Z,18.70
2022-08-19T21:42:24.102Z,18.60
2022-08-19T21:44:50.920Z,18.44
2022-08-19T21:47:17.712Z,18.39
2022-08-19T21:49:44.661Z,18.39
2022-08-19T21:52:11.549Z,18.31
2022-08-19T21:54:38.873Z,18.27
2022-08-19T21:57:10.139Z,18.19
2022-08-19T21:59:36.941Z,18.18
2022-08-19T22:02:19.206Z,18.15
2022-08-19T22:04:48.201Z,18.06
2022-08-19T22:07:15.626Z,18.11
2022-08-19T22:09:44.239Z,18.02
2022-08-19T22:12:23.371Z,18.05
2022-08-19T22:14:51.742Z,18.05
2022-08-19T22:17:19.959Z,17.99
2022-08-19T22:19:47.128Z,17.97
2022-08-19T22:22:20.272Z,17.88
2022-08-19T22:24:47.442Z,17.89
2022-08-19T22:27:14.098Z,17.90
2022-08-19T22:29:40.787Z,17.88
2022-08-19T22:32:26.557Z,17.86
2022-08-19T22:34:57.489Z,17.84
2022-08-19T22:37:25.371Z,17.80
2022-08-19T22:39:52.189Z,17.85
2022-08-19T22:42:20.493Z,17.83
2022-08-19T22:44:48.591Z,17.81
2022-08-19T22:47:15.652Z,17.75
2022-08-19T22:49:42.367Z,17.79
2022-08-19T22:52:17.536Z,17.63
2022-08-19T22:54:50.332Z,17.69
2022-08-19T22:57:21.684Z,17.75
2022-08-19T22:59:50.690Z,17.71
2022-08-19T23:02:27.900Z,17.68
2022-08-19T23:04:54.815Z,17.66
2022-08-19T23:07:23.572Z,17.63
2022-08-19T23:09:51.121Z,17.64
2022-08-19T23:12:30.751Z,17.64
2022-08-19T23:15:12.260Z,17.59
2022-08-19T23:17:40.642Z,17.62
2022-08-19T23:20:10.265Z,17.54
2022-08-19T23:22:39.511Z,17.56
2022-08-19T23:25:09.210Z,17.64
2022-08-19T23:27:55.028Z,17.58
2022-08-19T23:30:27.899Z,17.63
2022-08-19T23:33:15.109Z,17.62
2022-08-19T23:35:41.843Z,17.64
2022-08-19T23:38:10.116Z,17.68
2022-08-19T23:40:38.481Z,17.65
2022-08-19T23:43:08.184Z,17.64
2022-08-19T23:45:39.484Z,17.60
2022-08-19T23:48:07.152Z,17.66
2022-08-19T23:50:34.506Z,17.59
2022-08-19T23:53:01.791Z,17.66
2022-08-19T23:55:32.627Z,17.66
2022-08-19T23:57:59.870Z,17.66
